Time;durP1;ratioP1;P1;durP2;ratioP2;P2;SDS_P1;SDS_P2;PMS_P1;PMS_P2;Temp;Humidity;BMP_temperature;BMP_pressure;BME280_temperature;BME280_humidity;BME280_pressure;Samples;Min_cycle;Max_cycle;Signal;HPM_P1;HPM_P2
2023/03/12 00:00:39;;;;;;;9.67;4.17;;;0.10;99.90;;;;;;5095984;28;20204;-65
2023/03/12 00:03:06;;;;;;;6.63;3.70;;;0.10;99.90;;;;;;5096306;28;20265;-67
2023/03/12 00:05:33;;;;;;;7.23;4.00;;;0.10;99.90;;;;;;5096308;28;20232;-67
2023/03/12 00:08:00;;;;;;;6.23;3.77;;;0.00;99.90;;;;;;5096162;28;20232;-66
2023/03/12 00:10:28;;;;;;;6.80;3.50;;;-0.10;99.90;;;;;;5105610;28;20204;-67
2023/03/12 00:12:55;;;;;;;5.77;3.90;;;-0.10;99.90;;;;;;5104518;28;20212;-67
2023/03/12 00:15:22;;;;;;;7.43;3.90;;;0.00;99.90;;;;;;5099909;28;20692;-67
2023/03/12 00:17:49;;;;;;;9.27;4.47;;;-0.10;99.90;;;;;;5097338;28;20239;-68
2023/03/12 00:20:16;;;;;;;7.27;3.43;;;-0.20;99.90;;;;;;5106431;28;20204;-67
2023/03/12 00:22:43;;;;;;;6.23;3.77;;;-0.10;99.90;;;;;;5100602;28;20204;-67
2023/03/12 00:25:13;;;;;;;5.97;4.10;;;-0.20;99.90;;;;;;5096471;28;20227;-67
2023/03/12 00:27:42;;;;;;;8.13;3.80;;;-0.20;99.90;;;;;;5095384;28;20611;-66
2023/03/12 00:30:11;;;;;;;5.20;3.30;;;-0.10;99.90;;;;;;5095441;28;20219;-67
2023/03/12 00:32:38;;;;;;;9.47;3.77;;;0.00;99.90;;;;;;5095291;28;20204;-68
2023/03/12 00:35:07;;;;;;;7.33;3.70;;;0.00;99.90;;;;;;5096781;28;20204;-67
2023/03/12 00:37:34;;;;;;;9.90;3.97;;;0.00;99.90;;;;;;5095738;28;20585;-69
2023/03/12 00:40:01;;;;;;;6.10;3.43;;;0.10;99.90;;;;;;5095455;28;20204;-66
2023/03/12 00:42:27;;;;;;;6.97;3.73;;;0.10;99.90;;;;;;5095949;28;20641;-66
2023/03/12 00:44:55;;;;;;;5.90;3.90;;;0.10;99.90;;;;;;5095167;28;20220;-64
2023/03/12 00:47:22;;;;;;;6.90;3.77;;;0.10;99.90;;;;;;5095088;28;20232;-67
2023/03/12 00:49:49;;;;;;;10.07;4.43;;;0.10;99.90;;;;;;5095474;28;20212;-66
2023/03/12 00:52:16;;;;;;;6.60;3.90;;;0.00;99.90;;;;;;5095310;28;20208;-66
2023/03/12 00:54:42;;;;;;;6.03;4.07;;;0.10;99.90;;;;;;5095144;28;20204;-66
2023/03/12 00:57:09;;;;;;;7.50;3.73;;;0.00;99.90;;;;;;5094467;28;20204;-66
2023/03/12 00:59:39;;;;;;;6.17;3.83;;;0.00;99.90;;;;;;5094824;28;20214;-66
2023/03/12 01:02:07;;;;;;;8.60;3.90;;;0.00;99.90;;;;;;5094882;28;20228;-66
2023/03/12 01:04:34;;;;;;;8.50;4.10;;;0.00;99.90;;;;;;5100650;28;20235;-67
2023/03/12 01:07:01;;;;;;;6.87;3.97;;;0.00;99.90;;;;;;5094657;28;20204;-65
2023/03/12 01:09:27;;;;;;;9.07;4.27;;;-0.10;99.90;;;;;;5095298;28;20675;-65
2023/03/12 01:11:54;;;;;;;10.33;3.93;;;-0.20;99.90;;;;;;5095389;28;20204;-65
2023/03/12 01:14:21;;;;;;;5.10;3.40;;;-0.20;99.90;;;;;;5095188;28;20578;-66
2023/03/12 01:16:47;;;;;;;5.63;3.33;;;-0.20;99.90;;;;;;5094130;28;20211;-66
2023/03/12 01:19:15;;;;;;;7.33;3.47;;;-0.20;99.90;;;;;;5093875;28;20228;-66
2023/03/12 01:21:42;;;;;;;6.93;3.30;;;-0.20;99.90;;;;;;5094600;28;20215;-66
2023/03/12 01:24:09;;;;;;;7.70;3.70;;;-0.20;99.90;;;;;;5094017;28;20231;-66
2023/03/12 01:26:36;;;;;;;6.77;3.63;;;-0.20;99.90;;;;;;5093570;28;20204;-66
2023/03/12 01:29:02;;;;;;;6.27;3.63;;;-0.40;99.90;;;;;;5093924;28;20240;-66
2023/03/12 01:31:29;;;;;;;7.20;3.73;;;-0.30;99.90;;;;;;5094343;28;20204;-66
2023/03/12 01:33:56;;;;;;;7.33;3.67;;;-0.20;99.90;;;;;;5095818;28;20208;-66
2023/03/12 01:36:25;;;;;;;7.33;3.80;;;-0.10;99.90;;;;;;5113000;28;20212;-66
2023/03/12 01:38:53;;;;;;;8.00;3.43;;;0.00;99.90;;;;;;5110134;28;20754;-65
2023/03/12 01:41:21;;;;;;;6.07;3.20;;;0.10;99.90;;;;;;5109095;28;20208;-65
2023/03/12 01:43:48;;;;;;;8.27;4.07;;;0.20;99.90;;;;;;5107847;28;20204;-64
2023/03/12 01:46:37;;;;;;;6.93;3.95;;;0.20;99.90;;;;;;5087964;28;20450;-68
2023/03/12 01:49:08;;;;;;;5.67;3.50;;;0.30;99.90;;;;;;5094097;28;20219;-66
2023/03/12 01:51:40;;;;;;;4.93;3.40;;;0.30;99.90;;;;;;5095408;28;20208;-61
2023/03/12 01:54:12;;;;;;;8.60;3.90;;;0.40;99.90;;;;;;5101191;28;20269;-60
2023/03/12 01:56:39;;;;;;;6.00;3.60;;;0.40;99.90;;;;;;5101381;28;20566;-61
2023/03/12 01:59:12;;;;;;;7.60;3.80;;;0.40;99.90;;;;;;5101933;28;20232;-62
2023/03/12 02:01:40;;;;;;;7.17;3.50;;;0.40;99.90;;;;;;5101952;28;20253;-62
2023/03/12 02:04:07;;;;;;;6.63;3.70;;;0.40;99.90;;;;;;5102423;28;20216;-61
2023/03/12 02:06:39;;;;;;;5.83;3.70;;;0.50;99.90;;;;;;5101274;28;20209;-62
2023/03/12 02:09:07;;;;;;;6.57;4.00;;;0.60;99.90;;;;;;5099955;28;20228;-62
2023/03/12 02:11:34;;;;;;;7.40;3.73;;;0.60;99.90;;;;;;5102199;28;20215;-62
2023/03/12 02:14:01;;;;;;;8.07;3.73;;;0.50;99.90;;;;;;5103789;28;20234;-61
2023/03/12 02:16:28;;;;;;;5.87;3.63;;;0.50;99.90;;;;;;5103116;28;20632;-61
2023/03/12 02:18:57;;;;;;;6.00;3.30;;;0.40;99.90;;;;;;5102716;28;20228;-62
2023/03/12 02:21:25;;;;;;;9.23;3.60;;;0.50;99.90;;;;;;5102658;28;20200;-61
2023/03/12 02:24:00;;;;;;;6.47;3.43;;;0.40;99.90;;;;;;5102105;28;20200;-61
2023/03/12 02:26:29;;;;;;;6.20;3.23;;;0.50;99.90;;;;;;5095829;28;20227;-62
2023/03/12 02:28:58;;;;;;;6.03;3.07;;;0.60;99.90;;;;;;5095841;28;20577;-61
2023/03/12 02:31:29;;;;;;;6.90;3.30;;;0.70;99.90;;;;;;5093905;28;20209;-61
2023/03/12 02:33:57;;;;;;;5.73;3.40;;;0.80;99.90;;;;;;5093986;28;20208;-61
2023/03/12 02:36:24;;;;;;;7.30;3.60;;;0.90;99.90;;;;;;5093069;28;20241;-61
2023/03/12 02:38:52;;;;;;;8.50;3.43;;;0.90;99.90;;;;;;5093338;28;20232;-61
2023/03/12 02:41:21;;;;;;;5.37;3.20;;;1.00;99.90;;;;;;5092920;28;20212;-62
2023/03/12 02:43:58;;;;;;;6.90;3.10;;;1.00;99.90;;;;;;5093348;28;20234;-61
2023/03/12 02:46:25;;;;;;;8.13;3.60;;;1.10;99.90;;;;;;5093360;28;20224;-61
2023/03/12 02:48:53;;;;;;;7.00;3.40;;;1.20;99.90;;;;;;5092890;28;20228;-61
2023/03/12 02:51:20;;;;;;;6.03;3.10;;;1.20;99.90;;;;;;5092843;28;20615;-60
2023/03/12 02:53:49;;;;;;;4.43;3.03;;;1.20;99.90;;;;;;5093100;28;20249;-61
2023/03/12 02:56:15;;;;;;;6.33;3.27;;;1.20;99.90;;;;;;5092654;28;20223;-61
2023/03/12 02:58:43;;;;;;;7.77;3.23;;;1.30;99.90;;;;;;5106987;22;20240;-54
2023/03/12 03:01:11;;;;;;;8.27;3.57;;;1.40;99.90;;;;;;5091702;28;20686;-54
2023/03/12 03:03:38;;;;;;;5.57;3.53;;;1.50;99.90;;;;;;5092046;28;20204;-54
2023/03/12 03:06:05;;;;;;;5.53;2.93;;;1.60;99.90;;;;;;5091920;28;20227;-54
2023/03/12 03:08:32;;;;;;;6.23;3.07;;;1.60;99.90;;;;;;5095687;28;20598;-54
2023/03/12 03:11:01;;;;;;;7.17;3.40;;;1.60;99.90;;;;;;5095709;28;20257;-53
2023/03/12 03:13:28;;;;;;;5.87;3.20;;;1.60;99.90;;;;;;5095831;28;20208;-54
2023/03/12 03:15:56;;;;;;;6.33;3.17;;;1.70;99.90;;;;;;5096226;28;20677;-55
2023/03/12 03:18:24;;;;;;;8.20;3.10;;;1.80;99.90;;;;;;5095610;28;20260;-55
2023/03/12 03:20:55;;;;;;;4.53;3.20;;;1.80;99.90;;;;;;5095684;28;20208;-55
2023/03/12 03:23:22;;;;;;;8.50;3.33;;;1.80;99.90;;;;;;5095541;28;20231;-55
2023/03/12 03:25:49;;;;;;;3.33;2.80;;;1.60;99.90;;;;;;5095284;28;20228;-55
2023/03/12 03:28:16;;;;;;;7.20;3.20;;;1.40;99.90;;;;;;5095180;28;20717;-55
2023/03/12 03:30:42;;;;;;;5.07;2.93;;;1.30;99.90;;;;;;5095621;28;20211;-55
2023/03/12 03:33:09;;;;;;;4.83;3.27;;;1.30;99.90;;;;;;5095625;28;20208;-55
2023/03/12 03:35:37;;;;;;;8.27;3.00;;;1.40;99.90;;;;;;5095527;28;20270;-55
2023/03/12 03:38:04;;;;;;;7.13;3.10;;;1.40;99.90;;;;;;5095174;28;20311;-55
2023/03/12 03:40:31;;;;;;;5.30;3.07;;;1.50;99.90;;;;;;5095833;28;20204;-55
2023/03/12 03:42:57;;;;;;;6.87;3.43;;;1.70;99.90;;;;;;5095856;28;20204;-55
2023/03/12 03:45:24;;;;;;;5.93;3.20;;;1.70;99.90;;;;;;5095345;28;20228;-55
2023/03/12 03:47:51;;;;;;;8.07;3.03;;;1.80;99.90;;;;;;5094889;28;20699;-54
2023/03/12 03:50:18;;;;;;;7.33;3.40;;;1.80;99.90;;;;;;5095013;28;20208;-55
2023/03/12 03:52:46;;;;;;;4.40;3.30;;;1.70;99.90;;;;;;5095037;28;20211;-55
2023/03/12 03:55:13;;;;;;;6.20;3.40;;;1.60;99.90;;;;;;5094826;28;20687;-55
2023/03/12 03:57:39;;;;;;;8.43;3.47;;;1.70;99.90;;;;;;5094549;28;20237;-55
2023/03/12 04:00:08;;;;;;;6.23;3.57;;;1.70;99.90;;;;;;5095348;28;20204;-55
2023/03/12 04:02:35;;;;;;;8.60;3.80;;;1.60;99.90;;;;;;5094943;28;20597;-55
2023/03/12 04:05:02;;;;;;;6.03;3.67;;;1.40;99.90;;;;;;5094807;28;20217;-55
2023/03/12 04:07:29;;;;;;;5.97;3.50;;;1.40;99.90;;;;;;5094120;28;20204;-55
2023/03/12 04:09:57;;;;;;;6.03;3.23;;;1.50;99.90;;;;;;5094817;28;20215;-55
2023/03/12 04:12:24;;;;;;;4.40;2.90;;;1.60;99.90;;;;;;5094458;28;20295;-55
2023/03/12 04:14:51;;;;;;;4.83;2.60;;;1.50;99.90;;;;;;5094496;28;20209;-55
2023/03/12 04:17:19;;;;;;;5.90;3.07;;;1.50;99.90;;;;;;5094078;28;20207;-55
2023/03/12 04:19:45;;;;;;;6.73;3.00;;;1.50;99.90;;;;;;5093519;28;20208;-56
2023/03/12 04:22:12;;;;;;;5.30;2.83;;;1.50;99.90;;;;;;5094589;28;20234;-55
2023/03/12 04:24:39;;;;;;;5.03;3.00;;;1.50;99.90;;;;;;5094624;28;20208;-56
2023/03/12 04:27:07;;;;;;;8.30;3.30;;;1.50;99.90;;;;;;5094073;28;20242;-56
2023/03/12 04:29:33;;;;;;;10.07;3.00;;;1.70;99.90;;;;;;5094190;28;20715;-56
2023/03/12 04:32:00;;;;;;;6.30;3.30;;;1.70;99.90;;;;;;5094310;28;20299;-55
2023/03/12 04:34:27;;;;;;;6.77;3.13;;;1.80;99.90;;;;;;5094066;28;20204;-56
2023/03/12 04:36:53;;;;;;;5.23;2.97;;;1.90;99.90;;;;;;5094091;28;20204;-55
2023/03/12 04:39:20;;;;;;;7.20;3.40;;;2.00;99.90;;;;;;5094298;28;20240;-56
2023/03/12 04:41:47;;;;;;;4.97;2.73;;;2.10;99.90;;;;;;5094123;28;20208;-55
2023/03/12 04:44:15;;;;;;;9.07;2.90;;;2.00;99.90;;;;;;5094072;28;20207;-55
2023/03/12 04:46:43;;;;;;;9.63;3.43;;;2.00;99.90;;;;;;5093930;28;20231;-55
2023/03/12 04:49:09;;;;;;;7.73;3.43;;;2.10;99.90;;;;;;5093378;28;20235;-54
2023/03/12 04:51:36;;;;;;;6.27;3.20;;;2.20;99.90;;;;;;5094284;28;20434;-55
2023/03/12 04:54:03;;;;;;;5.03;2.97;;;2.10;99.90;;;;;;5094170;28;20659;-55
2023/03/12 04:56:29;;;;;;;6.50;3.17;;;2.10;99.90;;;;;;5093781;28;20204;-55
2023/03/12 04:58:56;;;;;;;5.47;2.40;;;2.00;99.90;;;;;;5093209;28;20243;-55
2023/03/12 05:01:28;;;;;;;5.07;2.80;;;2.10;99.90;;;;;;5093763;28;20204;-55
2023/03/12 05:03:55;;;;;;;5.53;2.77;;;2.00;99.90;;;;;;5093893;28;20207;-55
2023/03/12 05:06:22;;;;;;;5.20;3.10;;;2.10;99.90;;;;;;5093834;28;20224;-55
2023/03/12 05:08:49;;;;;;;3.73;2.43;;;2.10;99.90;;;;;;5093265;28;20220;-55
2023/03/12 05:11:17;;;;;;;5.53;2.87;;;2.30;99.90;;;;;;5093574;28;20208;-56
2023/03/12 05:13:44;;;;;;;3.83;2.47;;;2.30;99.90;;;;;;5093517;28;20290;-56
2023/03/12 05:16:12;;;;;;;5.67;2.40;;;2.30;99.90;;;;;;5093438;28;20208;-56
2023/03/12 05:18:40;;;;;;;4.77;2.40;;;2.30;99.90;;;;;;5093258;28;20255;-55
2023/03/12 05:21:11;;;;;;;4.43;2.80;;;2.30;99.90;;;;;;5093351;28;20265;-55
2023/03/12 05:23:41;;;;;;;6.73;2.60;;;2.40;99.90;;;;;;5093468;28;20204;-55
2023/03/12 05:26:08;;;;;;;5.03;2.37;;;2.50;99.90;;;;;;5093129;28;20220;-55
2023/03/12 05:28:35;;;;;;;2.87;1.90;;;2.50;99.90;;;;;;5092865;28;20235;-56
2023/03/12 05:31:01;;;;;;;6.03;2.73;;;2.50;99.90;;;;;;5093494;28;20204;-56
2023/03/12 05:33:29;;;;;;;3.90;2.40;;;2.70;99.90;;;;;;5093567;28;20640;-55
2023/03/12 05:35:57;;;;;;;4.50;2.53;;;2.70;99.90;;;;;;5093532;28;20200;-55
2023/03/12 05:38:23;;;;;;;4.47;2.60;;;2.90;99.90;;;;;;5092944;28;20224;-55
2023/03/12 05:40:54;;;;;;;3.57;2.40;;;2.90;99.90;;;;;;5093084;28;20213;-55
2023/03/12 05:43:21;;;;;;;3.80;2.50;;;2.90;99.90;;;;;;5093294;28;20639;-56
2023/03/12 05:45:48;;;;;;;4.30;2.30;;;3.00;99.90;;;;;;5093014;28;20310;-55
2023/03/12 05:48:15;;;;;;;4.60;2.47;;;3.00;99.90;;;;;;5092976;28;20228;-55
2023/03/12 05:50:42;;;;;;;3.57;2.33;;;2.90;99.90;;;;;;5092787;28;20211;-55
2023/03/12 05:53:11;;;;;;;4.00;2.57;;;2.80;99.90;;;;;;5092861;28;20239;-55
2023/03/12 05:55:39;;;;;;;6.87;2.90;;;2.80;99.90;;;;;;5092611;28;20207;-55
2023/03/12 05:58:07;;;;;;;5.30;2.57;;;2.80;99.90;;;;;;5092507;28;20247;-56
2023/03/12 06:00:36;;;;;;;5.97;2.67;;;2.80;99.90;;;;;;5092978;28;20204;-54
2023/03/12 06:03:03;;;;;;;4.63;2.50;;;2.90;99.90;;;;;;5092750;28;20212;-54
2023/03/12 06:05:31;;;;;;;6.30;2.80;;;2.90;99.90;;;;;;5092448;28;20687;-54
2023/03/12 06:07:57;;;;;;;4.50;2.30;;;2.90;99.90;;;;;;5092340;28;20224;-54
2023/03/12 06:10:26;;;;;;;6.13;2.53;;;2.90;99.90;;;;;;5092632;28;20203;-54
2023/03/12 06:12:52;;;;;;;3.97;2.40;;;2.90;99.90;;;;;;5092748;28;20728;-54
2023/03/12 06:15:19;;;;;;;6.53;2.63;;;2.90;99.90;;;;;;5092685;28;20204;-55
2023/03/12 06:17:46;;;;;;;6.23;2.33;;;3.10;99.90;;;;;;5092096;28;20227;-55
2023/03/12 06:20:13;;;;;;;5.00;2.50;;;3.10;99.90;;;;;;5092337;28;20208;-55
2023/03/12 06:22:39;;;;;;;7.10;2.27;;;3.20;99.90;;;;;;5092262;28;20204;-55
2023/03/12 06:25:07;;;;;;;4.20;2.90;;;3.20;99.90;;;;;;5092417;28;20241;-55
2023/03/12 06:27:35;;;;;;;8.43;3.07;;;3.30;99.90;;;;;;5092148;28;20228;-54
2023/03/12 06:30:03;;;;;;;3.50;2.50;;;3.40;99.90;;;;;;5092380;28;20204;-55
2023/03/12 06:32:30;;;;;;;5.13;2.30;;;3.50;99.90;;;;;;5092671;28;20205;-55
2023/03/12 06:34:59;;;;;;;4.00;2.30;;;3.50;99.90;;;;;;5092252;28;20622;-55
2023/03/12 06:37:26;;;;;;;5.00;2.70;;;3.60;99.90;;;;;;5091916;28;20207;-55
2023/03/12 06:39:53;;;;;;;5.00;2.30;;;3.60;99.90;;;;;;5092576;28;20219;-54
2023/03/12 06:42:21;;;;;;;4.47;2.33;;;3.60;99.90;;;;;;5094694;28;20210;-54
2023/03/12 06:44:49;;;;;;;4.67;2.30;;;3.70;99.90;;;;;;5096726;28;20303;-55
2023/03/12 06:47:16;;;;;;;5.63;2.80;;;3.80;99.90;;;;;;5096022;28;20375;-54
2023/03/12 06:49:43;;;;;;;8.63;2.70;;;3.90;99.90;;;;;;5096653;28;20204;-55
2023/03/12 06:52:10;;;;;;;3.63;2.43;;;4.10;99.90;;;;;;5096284;28;20208;-55
2023/03/12 06:54:36;;;;;;;5.63;2.93;;;4.20;99.90;;;;;;5096269;28;20686;-55
2023/03/12 06:57:04;;;;;;;4.03;2.67;;;4.20;99.90;;;;;;5096463;28;20319;-55
2023/03/12 06:59:30;;;;;;;3.50;2.40;;;4.00;99.90;;;;;;5095989;28;20727;-55
2023/03/12 07:01:58;;;;;;;4.50;2.90;;;4.00;99.90;;;;;;5096146;28;20208;-55
2023/03/12 07:04:25;;;;;;;4.07;2.67;;;4.10;99.90;;;;;;5096584;28;20257;-55
2023/03/12 07:06:52;;;;;;;6.77;2.80;;;4.10;99.90;;;;;;5095730;28;20564;-55
2023/03/12 07:09:18;;;;;;;4.87;2.97;;;4.20;99.90;;;;;;5095776;28;20580;-55
2023/03/12 07:11:45;;;;;;;5.87;2.73;;;4.30;99.90;;;;;;5096204;28;20208;-55
2023/03/12 07:14:12;;;;;;;5.10;2.73;;;4.40;99.90;;;;;;5095852;28;20212;-55
2023/03/12 07:16:39;;;;;;;7.53;3.93;;;4.50;99.90;;;;;;5095620;28;20210;-55
2023/03/12 07:19:07;;;;;;;6.13;3.00;;;4.60;99.90;;;;;;5095596;28;20228;-55
2023/03/12 07:21:34;;;;;;;6.30;2.90;;;4.70;99.90;;;;;;5095894;28;20204;-55
2023/03/12 07:24:05;;;;;;;4.50;2.80;;;4.80;99.90;;;;;;5095847;28;20208;-55
2023/03/12 07:26:32;;;;;;;4.67;2.93;;;4.80;99.90;;;;;;5095779;28;20220;-55
2023/03/12 07:28:59;;;;;;;3.73;2.90;;;4.80;99.90;;;;;;5096642;28;20224;-55
2023/03/12 07:31:26;;;;;;;6.10;2.97;;;4.60;99.90;;;;;;5095747;28;20215;-55
2023/03/12 07:33:53;;;;;;;3.73;2.73;;;4.50;99.90;;;;;;5096122;28;20614;-55
2023/03/12 07:36:21;;;;;;;5.03;3.00;;;4.30;99.90;;;;;;5095872;28;20205;-55
2023/03/12 07:38:47;;;;;;;4.13;2.80;;;4.10;99.90;;;;;;5095317;28;20228;-55
2023/03/12 07:41:14;;;;;;;5.30;3.23;;;4.10;99.90;;;;;;5095606;28;20208;-55
2023/03/12 07:43:41;;;;;;;5.00;3.10;;;4.00;99.90;;;;;;5095305;28;20215;-55
2023/03/12 07:46:08;;;;;;;5.30;2.93;;;4.00;99.90;;;;;;5095247;28;20231;-55
2023/03/12 07:48:34;;;;;;;9.00;3.10;;;4.00;99.90;;;;;;5095102;28;20285;-55
2023/03/12 07:51:01;;;;;;;5.37;3.03;;;4.00;99.90;;;;;;5095396;28;20211;-55
2023/03/12 07:53:29;;;;;;;6.27;3.20;;;4.10;99.90;;;;;;5095223;28;20208;-55
2023/03/12 07:55:56;;;;;;;5.03;2.87;;;4.20;99.90;;;;;;5095192;28;20207;-56
2023/03/12 07:58:23;;;;;;;5.63;3.00;;;4.30;99.90;;;;;;5094852;28;20243;-56
2023/03/12 08:00:50;;;;;;;4.10;2.60;;;4.40;99.90;;;;;;5094809;28;20212;-56
2023/03/12 08:03:16;;;;;;;5.37;2.47;;;4.40;99.90;;;;;;5094845;28;20703;-55
2023/03/12 08:05:43;;;;;;;5.20;2.93;;;4.50;99.90;;;;;;5094727;28;20590;-54
2023/03/12 08:08:10;;;;;;;5.90;2.93;;;4.60;99.90;;;;;;5094846;28;20715;-55
2023/03/12 08:10:38;;;;;;;4.50;2.50;;;4.60;99.90;;;;;;5094792;28;20211;-55
2023/03/12 08:13:05;;;;;;;6.43;3.23;;;4.70;99.90;;;;;;5094673;28;20208;-55
2023/03/12 08:15:32;;;;;;;3.83;2.60;;;4.80;99.90;;;;;;5094855;28;20204;-55
2023/03/12 08:18:00;;;;;;;10.27;3.00;;;4.90;99.90;;;;;;5094301;28;20220;-56
2023/03/12 08:20:27;;;;;;;4.63;3.17;;;5.00;99.90;;;;;;5094972;28;20208;-56
2023/03/12 08:22:53;;;;;;;4.10;2.90;;;5.00;99.90;;;;;;5095440;28;20578;-55
2023/03/12 08:25:20;;;;;;;7.57;3.40;;;5.00;99.90;;;;;;5095054;28;20204;-55
2023/03/12 08:27:48;;;;;;;3.97;2.93;;;5.00;99.90;;;;;;5094769;28;20224;-55
2023/03/12 08:30:15;;;;;;;6.57;3.10;;;5.10;99.90;;;;;;5095427;28;20208;-55
2023/03/12 08:32:42;;;;;;;8.63;4.63;;;5.10;99.90;;;;;;5095145;28;20212;-54
2023/03/12 08:35:09;;;;;;;6.30;3.70;;;5.00;99.90;;;;;;5094628;28;20694;-54
2023/03/12 08:37:36;;;;;;;7.53;3.40;;;5.00;99.90;;;;;;5094207;28;20246;-56
2023/03/12 08:40:07;;;;;;;3.97;3.13;;;5.10;99.90;;;;;;5095133;28;20211;-54
2023/03/12 08:42:34;;;;;;;9.13;4.37;;;5.10;99.90;;;;;;5095270;28;20353;-54
2023/03/12 08:45:03;;;;;;;7.17;4.00;;;5.20;99.90;;;;;;5094902;28;20690;-54
2023/03/12 08:47:29;;;;;;;5.07;3.60;;;5.40;99.90;;;;;;5094654;28;20224;-56
2023/03/12 08:49:56;;;;;;;6.07;3.80;;;5.60;99.90;;;;;;5095392;28;20208;-56
2023/03/12 08:52:23;;;;;;;8.67;3.80;;;5.70;99.90;;;;;;5095684;28;20265;-54
2023/03/12 08:54:50;;;;;;;8.37;3.70;;;5.80;99.90;;;;;;5096164;28;20219;-55
2023/03/12 08:57:16;;;;;;;8.20;4.17;;;5.70;99.90;;;;;;5095628;28;20197;-55
2023/03/12 08:59:43;;;;;;;7.50;3.70;;;5.80;99.90;;;;;;5096418;28;20220;-56
2023/03/12 09:02:13;;;;;;;6.77;3.80;;;6.20;99.90;;;;;;5095125;28;20215;-56
2023/03/12 09:04:40;;;;;;;7.47;3.73;;;6.60;99.90;;;;;;5094472;28;20212;-57
2023/03/12 09:07:08;;;;;;;6.30;3.53;;;7.00;99.90;;;;;;5095071;28;20224;-57
2023/03/12 09:09:35;;;;;;;6.47;4.50;;;7.20;99.90;;;;;;5095255;28;20235;-56
2023/03/12 09:12:02;;;;;;;8.43;5.20;;;7.30;99.90;;;;;;5095518;28;20257;-59
2023/03/12 09:14:29;;;;;;;6.87;4.40;;;7.70;99.90;;;;;;5096952;28;20204;-60
2023/03/12 09:17:03;;;;;;;6.90;5.00;;;7.80;99.90;;;;;;5094862;28;20196;-59
2023/03/12 09:19:31;;;;;;;6.17;4.20;;;8.10;99.90;;;;;;5094667;28;20235;-62
2023/03/12 09:22:01;;;;;;;4.87;3.70;;;8.40;99.90;;;;;;5094426;28;20603;-61
2023/03/12 09:24:28;;;;;;;5.40;4.20;;;8.70;99.90;;;;;;5094665;28;20208;-60
2023/03/12 09:26:55;;;;;;;5.37;4.00;;;8.90;99.90;;;;;;5094214;28;20493;-60
2023/03/12 09:29:22;;;;;;;7.97;4.53;;;9.10;99.90;;;;;;5093335;28;20224;-60
2023/03/12 09:31:49;;;;;;;7.20;4.23;;;9.30;99.90;;;;;;5093680;28;20208;-60
2023/03/12 09:34:15;;;;;;;4.70;4.20;;;9.40;99.90;;;;;;5093681;28;20211;-60
2023/03/12 09:36:44;;;;;;;5.40;4.10;;;9.50;99.90;;;;;;5093438;28;20686;-60
2023/03/12 09:39:10;;;;;;;6.27;4.07;;;9.70;99.90;;;;;;5092943;28;20723;-60
2023/03/12 09:41:39;;;;;;;8.97;5.40;;;9.80;99.90;;;;;;5093133;28;20208;-60
2023/03/12 09:44:15;;;;;;;5.47;4.60;;;10.00;99.90;;;;;;5093383;28;20215;-61
2023/03/12 09:46:48;;;;;;;5.03;4.43;;;10.30;99.90;;;;;;5093146;28;20208;-60
2023/03/12 09:49:19;;;;;;;6.77;4.70;;;10.70;99.90;;;;;;5092763;28;20262;-59
2023/03/12 09:51:52;;;;;;;5.40;4.47;;;10.90;99.90;;;;;;5093100;28;20211;-59
2023/03/12 09:54:27;;;;;;;6.00;4.43;;;11.10;99.90;;;;;;5092956;28;20204;-60
2023/03/12 09:56:55;;;;;;;5.37;4.33;;;11.30;99.90;;;;;;5092845;28;20678;-60
2023/03/12 09:59:23;;;;;;;5.33;4.47;;;11.60;99.90;;;;;;5092377;28;20239;-60
2023/03/12 10:01:54;;;;;;;4.83;4.27;;;11.80;99.90;;;;;;5093022;28;20200;-61
2023/03/12 10:04:41;;;;;;;4.57;3.77;;;12.00;99.90;;;;;;5092522;28;20211;-61
2023/03/12 10:07:16;;;;;;;4.13;3.67;;;12.10;99.90;;;;;;5092715;28;20223;-59
2023/03/12 10:10:12;;;;;;;5.27;3.73;;;12.20;99.90;;;;;;5092917;28;20199;-61
2023/03/12 10:12:58;;;;;;;4.60;3.93;;;12.20;99.90;;;;;;5092523;28;20701;-59
2023/03/12 10:15:39;;;;;;;5.33;3.50;;;12.20;99.90;;;;;;5092464;28;20667;-60
2023/03/12 10:18:19;;;;;;;5.23;3.40;;;12.20;99.90;;;;;;5091832;28;20591;-60
2023/03/12 10:20:52;;;;;;;4.03;3.30;;;12.20;99.90;;;;;;5092734;28;20219;-60
2023/03/12 10:23:31;;;;;;;6.93;4.07;;;12.20;99.90;;;;;;5092774;28;20672;-61
2023/03/12 10:26:04;;;;;;;4.00;3.40;;;12.30;99.90;;;;;;5092583;28;20238;-61
2023/03/12 10:28:36;;;;;;;4.30;3.60;;;12.40;99.90;;;;;;5092102;28;20228;-60
2023/03/12 10:31:06;;;;;;;34.80;30.30;;;12.60;99.90;;;;;;5092207;28;20664;-60
2023/03/12 10:33:42;;;;;;;5.80;4.00;;;12.70;99.90;;;;;;5092496;28;20208;-61
2023/03/12 10:36:19;;;;;;;5.13;3.43;;;12.80;99.90;;;;;;5092391;28;20208;-59
2023/03/12 10:38:48;;;;;;;4.53;2.83;;;12.80;99.90;;;;;;5091834;28;20224;-61
2023/03/12 10:41:17;;;;;;;4.43;3.30;;;12.90;99.90;;;;;;5092050;28;20664;-59
2023/03/12 10:43:44;;;;;;;4.47;3.83;;;13.00;99.90;;;;;;5092276;28;20584;-60
2023/03/12 10:46:43;;;;;;;4.90;3.70;;;13.20;99.90;;;;;;5092492;28;20295;-59
2023/03/12 10:49:31;;;;;;;4.03;3.10;;;13.40;99.90;;;;;;5058271;28;20596;-60
2023/03/12 10:52:03;;;;;;;3.67;2.77;;;13.60;99.90;;;;;;5092795;28;20305;-61
2023/03/12 10:54:34;;;;;;;5.03;3.17;;;13.80;99.90;;;;;;5092881;28;20212;-61
2023/03/12 10:57:01;;;;;;;4.03;3.07;;;13.80;99.90;;;;;;5092417;28;20212;-59
2023/03/12 10:59:31;;;;;;;3.70;2.73;;;13.80;99.90;;;;;;5091843;28;20235;-60
2023/03/12 11:01:59;;;;;;;4.27;3.17;;;13.70;99.90;;;;;;5091984;28;20285;-61
2023/03/12 11:04:28;;;;;;;4.93;3.00;;;13.50;99.90;;;;;;5092168;28;20219;-61
2023/03/12 11:07:18;;;;;;;4.77;2.50;;;13.40;99.90;;;;;;5092098;28;20261;-59
2023/03/12 11:10:11;;;;;;;3.87;3.10;;;13.30;99.90;;;;;;5091715;28;20208;-60
2023/03/12 11:12:39;;;;;;;11.60;5.63;;;13.30;99.90;;;;;;5082450;28;20450;-58
2023/03/12 11:15:20;;;;;;;4.07;3.40;;;13.20;99.90;;;;;;5073965;28;20273;-58
2023/03/12 11:17:47;;;;;;;9.80;4.73;;;13.10;99.90;;;;;;5090272;28;20303;-59
2023/03/12 11:20:25;;;;;;;5.03;3.73;;;13.10;99.90;;;;;;5091144;28;20287;-60
2023/03/12 11:22:52;;;;;;;4.83;3.40;;;13.00;99.90;;;;;;5091094;28;20633;-58
2023/03/12 11:25:25;;;;;;;4.57;2.90;;;13.00;99.90;;;;;;5091231;28;20307;-64
2023/03/12 11:27:54;;;;;;;4.77;3.53;;;13.00;99.90;;;;;;5090862;28;20231;-60
2023/03/12 11:30:26;;;;;;;4.23;2.80;;;12.90;99.90;;;;;;5094050;28;20236;-59
2023/03/12 11:32:54;;;;;;;3.53;2.50;;;12.90;99.90;;;;;;5094840;28;20204;-59
2023/03/12 11:35:28;;;;;;;23.23;19.00;;;13.00;99.90;;;;;;5094331;28;20204;-65
2023/03/12 11:38:02;;;;;;;6.50;2.70;;;13.10;99.90;;;;;;5095455;28;20600;-59
2023/03/12 11:40:48;;;;;;;4.07;2.30;;;13.50;99.90;;;;;;5094543;28;20568;-60
2023/03/12 11:43:31;;;;;;;3.90;2.07;;;13.90;99.90;;;;;;5094713;28;20204;-57
2023/03/12 11:46:11;;;;;;;2.97;1.80;;;14.30;99.90;;;;;;5093988;28;20200;-60
2023/03/12 11:48:45;;;;;;;3.43;2.00;;;14.90;99.90;;;;;;5094956;28;20614;-60
2023/03/12 11:51:24;;;;;;;2.30;1.63;;;15.30;99.90;;;;;;5094051;28;20216;-60
2023/03/12 11:54:05;;;;;;;2.70;1.80;;;15.70;99.90;;;;;;5093889;28;20204;-58
2023/03/12 11:56:35;;;;;;;2.50;1.90;;;15.90;99.90;;;;;;5087265;28;20284;-61
2023/03/12 11:59:31;;;;;;;3.20;1.93;;;15.80;99.90;;;;;;5094483;28;20227;-62
2023/03/12 12:02:11;;;;;;;2.80;1.80;;;15.70;99.90;;;;;;5094868;28;20627;-62
2023/03/12 12:05:07;;;;;;;3.33;1.50;;;15.60;99.90;;;;;;5094358;28;20676;-61
2023/03/12 12:07:48;;;;;;;5.97;3.90;;;15.80;99.90;;;;;;5095111;28;20311;-61
2023/03/12 12:10:28;;;;;;;2.23;1.50;;;16.00;99.90;;;;;;5094592;28;20236;-62
2023/03/12 12:13:05;;;;;;;2.90;1.60;;;15.90;99.90;;;;;;5092398;28;20200;-63
2023/03/12 12:15:38;;;;;;;3.40;1.50;;;15.60;99.90;;;;;;5094868;28;20258;-61
2023/03/12 12:18:23;;;;;;;2.90;2.00;;;15.20;99.90;;;;;;5093975;28;20224;-61
2023/03/12 12:20:58;;;;;;;1.40;1.17;;;14.80;99.90;;;;;;5093632;28;20697;-62
2023/03/12 12:23:35;;;;;;;4.00;1.90;;;14.50;99.90;;;;;;5092787;28;20208;-61
2023/03/12 12:26:06;;;;;;;4.17;1.87;;;14.40;99.90;;;;;;5092642;28;20605;-61
2023/03/12 12:28:54;;;;;;;2.13;1.93;;;14.40;99.90;;;;;;5092528;28;20691;-60
2023/03/12 12:31:37;;;;;;;5.77;2.37;;;14.40;99.90;;;;;;5093311;28;20287;-64
2023/03/12 12:34:26;;;;;;;3.40;2.57;;;14.70;99.90;;;;;;5094462;28;20290;-61
2023/03/12 12:36:57;;;;;;;4.20;3.57;;;14.90;99.90;;;;;;5093346;28;20215;-60
2023/03/12 12:39:30;;;;;;;4.13;2.37;;;15.00;99.90;;;;;;5092351;28;20227;-60
2023/03/12 12:42:01;;;;;;;3.50;1.90;;;15.10;99.90;;;;;;5093626;28;20212;-60
2023/03/12 12:44:35;;;;;;;5.20;2.23;;;15.40;99.90;;;;;;5093286;28;20679;-59
2023/03/12 12:47:05;;;;;;;3.93;2.43;;;15.60;99.90;;;;;;5093396;28;20200;-60
2023/03/12 12:49:40;;;;;;;4.03;2.23;;;15.70;99.90;;;;;;5092944;28;20235;-60
2023/03/12 12:52:12;;;;;;;3.13;2.43;;;15.60;99.90;;;;;;5093316;28;20204;-60
2023/03/12 12:54:48;;;;;;;2.77;1.80;;;15.60;99.90;;;;;;5092911;28;20219;-62
2023/03/12 12:57:21;;;;;;;5.47;1.73;;;15.40;99.90;;;;;;5093432;28;20207;-59
2023/03/12 13:00:00;;;;;;;3.07;1.70;;;15.20;99.90;;;;;;5092944;28;20208;-61
2023/03/12 13:02:32;;;;;;;3.40;1.80;;;15.10;99.90;;;;;;5092166;28;20204;-61
2023/03/12 13:04:59;;;;;;;4.30;1.43;;;15.00;99.90;;;;;;5091625;28;20208;-61